Meroa, Iowa
Current Conditions -  °F | °C
As of 2:35 AM on Friday 31 Oct 2014 (Local Time) from KCCY Reporting Station
Clear Clear  
Wind Chill: 19°   Ceiling: Unl
Heat Index: 30°   Visibility: 10mi
Dew Point: 16°   Wind: 16mph
Humidity: 55%   Direction: 350°N
Pressure: 30.32"   Gusts: 22mph
Location:  43.2938°N, 92.8135°W
Report Text: KCCY 310735Z AUTO 35014G19KT 10SM CLR M01/M09 A3032 RMK AO2
Loading
Personal Weather Stations






























Interactive Weather Map
Tropical Storm Tracking
New forecast layout! Learn more

10-Day Weather Forecast

Advertisements
Track Severe Weather on mobile